sensor_id;sensor_type;location;lat;lon;timestamp;P1;durP1;ratioP1;P2;durP2;ratioP2
10469;SDS011;5282;47.052;15.458;2024-02-26T00:01:11;3.53;;;3.33;;
10469;SDS011;5282;47.052;15.458;2024-02-26T00:03:42;3.97;;;3.50;;
10469;SDS011;5282;47.052;15.458;2024-02-26T00:06:11;3.87;;;3.67;;
10469;SDS011;5282;47.052;15.458;2024-02-26T00:08:38;3.70;;;3.40;;
10469;SDS011;5282;47.052;15.458;2024-02-26T00:11:05;3.70;;;3.50;;
10469;SDS011;5282;47.052;15.458;2024-02-26T00:13:32;3.40;;;3.20;;
10469;SDS011;5282;47.052;15.458;2024-02-26T00:15:59;3.53;;;3.33;;
10469;SDS011;5282;47.052;15.458;2024-02-26T00:18:26;3.43;;;3.23;;
10469;SDS011;5282;47.052;15.458;2024-02-26T00:20:55;3.50;;;3.30;;
10469;SDS011;5282;47.052;15.458;2024-02-26T00:23:21;3.77;;;3.47;;
10469;SDS011;5282;47.052;15.458;2024-02-26T00:25:49;4.10;;;3.30;;
10469;SDS011;5282;47.052;15.458;2024-02-26T00:28:16;3.70;;;3.50;;
10469;SDS011;5282;47.052;15.458;2024-02-26T00:30:45;3.27;;;3.13;;
10469;SDS011;5282;47.052;15.458;2024-02-26T00:33:12;3.50;;;3.30;;
10469;SDS011;5282;47.052;15.458;2024-02-26T00:35:39;3.47;;;3.27;;
10469;SDS011;5282;47.052;15.458;2024-02-26T00:38:08;4.43;;;3.40;;
10469;SDS011;5282;47.052;15.458;2024-02-26T00:40:35;4.07;;;3.27;;
10469;SDS011;5282;47.052;15.458;2024-02-26T00:43:01;3.67;;;3.47;;
10469;SDS011;5282;47.052;15.458;2024-02-26T00:45:29;3.50;;;3.30;;
10469;SDS011;5282;47.052;15.458;2024-02-26T00:47:57;3.40;;;3.20;;
10469;SDS011;5282;47.052;15.458;2024-02-26T00:50:26;3.40;;;3.17;;
10469;SDS011;5282;47.052;15.458;2024-02-26T00:52:53;4.67;;;3.90;;
10469;SDS011;5282;47.052;15.458;2024-02-26T00:55:22;3.20;;;3.00;;
10469;SDS011;5282;47.052;15.458;2024-02-26T00:57:48;3.77;;;3.47;;
10469;SDS011;5282;47.052;15.458;2024-02-26T01:00:16;3.90;;;3.60;;
10469;SDS011;5282;47.052;15.458;2024-02-26T01:02:43;4.77;;;3.50;;
10469;SDS011;5282;47.052;15.458;2024-02-26T01:05:12;3.67;;;3.47;;
10469;SDS011;5282;47.052;15.458;2024-02-26T01:07:40;3.63;;;3.27;;
10469;SDS011;5282;47.052;15.458;2024-02-26T01:10:07;4.27;;;3.27;;
10469;SDS011;5282;47.052;15.458;2024-02-26T01:12:36;3.60;;;3.40;;
10469;SDS011;5282;47.052;15.458;2024-02-26T01:15:03;3.07;;;2.97;;
10469;SDS011;5282;47.052;15.458;2024-02-26T01:17:31;3.80;;;3.50;;
10469;SDS011;5282;47.052;15.458;2024-02-26T01:19:58;3.60;;;3.30;;
10469;SDS011;5282;47.052;15.458;2024-02-26T01:22:25;4.37;;;3.83;;
10469;SDS011;5282;47.052;15.458;2024-02-26T01:24:52;4.67;;;3.30;;
10469;SDS011;5282;47.052;15.458;2024-02-26T01:27:19;3.43;;;3.23;;
10469;SDS011;5282;47.052;15.458;2024-02-26T01:29:47;3.47;;;3.00;;
10469;SDS011;5282;47.052;15.458;2024-02-26T01:32:14;3.00;;;2.90;;
10469;SDS011;5282;47.052;15.458;2024-02-26T01:34:41;3.30;;;3.10;;
10469;SDS011;5282;47.052;15.458;2024-02-26T01:37:08;3.40;;;3.20;;
10469;SDS011;5282;47.052;15.458;2024-02-26T01:39:34;3.50;;;3.30;;
10469;SDS011;5282;47.052;15.458;2024-02-26T01:42:01;3.30;;;3.10;;
10469;SDS011;5282;47.052;15.458;2024-02-26T01:44:28;3.33;;;3.10;;
10469;SDS011;5282;47.052;15.458;2024-02-26T01:46:56;3.00;;;2.80;;
10469;SDS011;5282;47.052;15.458;2024-02-26T01:49:23;3.13;;;2.87;;
10469;SDS011;5282;47.052;15.458;2024-02-26T01:51:50;3.40;;;3.20;;
10469;SDS011;5282;47.052;15.458;2024-02-26T01:54:18;3.33;;;3.00;;
10469;SDS011;5282;47.052;15.458;2024-02-26T01:56:45;3.20;;;3.00;;
10469;SDS011;5282;47.052;15.458;2024-02-26T01:59:11;3.33;;;3.03;;
10469;SDS011;5282;47.052;15.458;2024-02-26T02:01:39;3.17;;;2.97;;
10469;SDS011;5282;47.052;15.458;2024-02-26T02:04:12;3.03;;;2.83;;
10469;SDS011;5282;47.052;15.458;2024-02-26T02:06:39;3.60;;;3.40;;
10469;SDS011;5282;47.052;15.458;2024-02-26T02:09:09;2.70;;;2.60;;
10469;SDS011;5282;47.052;15.458;2024-02-26T02:11:36;3.03;;;2.73;;
10469;SDS011;5282;47.052;15.458;2024-02-26T02:14:03;3.03;;;2.80;;
10469;SDS011;5282;47.052;15.458;2024-02-26T02:16:30;2.83;;;2.67;;
10469;SDS011;5282;47.052;15.458;2024-02-26T02:18:57;3.00;;;2.73;;
10469;SDS011;5282;47.052;15.458;2024-02-26T02:21:26;4.83;;;2.93;;
10469;SDS011;5282;47.052;15.458;2024-02-26T02:23:53;2.23;;;2.13;;
10469;SDS011;5282;47.052;15.458;2024-02-26T02:26:19;2.47;;;2.37;;
10469;SDS011;5282;47.052;15.458;2024-02-26T02:28:47;2.50;;;2.30;;
10469;SDS011;5282;47.052;15.458;2024-02-26T02:31:15;3.23;;;3.03;;
10469;SDS011;5282;47.052;15.458;2024-02-26T02:33:43;2.30;;;2.20;;
10469;SDS011;5282;47.052;15.458;2024-02-26T02:36:10;2.80;;;2.60;;
10469;SDS011;5282;47.052;15.458;2024-02-26T02:38:39;2.40;;;2.30;;
10469;SDS011;5282;47.052;15.458;2024-02-26T02:41:15;2.77;;;2.57;;
10469;SDS011;5282;47.052;15.458;2024-02-26T02:43:42;2.07;;;1.97;;
10469;SDS011;5282;47.052;15.458;2024-02-26T02:46:10;2.63;;;2.50;;
10469;SDS011;5282;47.052;15.458;2024-02-26T02:48:37;2.90;;;2.30;;
10469;SDS011;5282;47.052;15.458;2024-02-26T02:51:05;2.70;;;2.50;;
10469;SDS011;5282;47.052;15.458;2024-02-26T02:53:32;2.43;;;2.33;;
10469;SDS011;5282;47.052;15.458;2024-02-26T02:56:03;3.33;;;2.40;;
10469;SDS011;5282;47.052;15.458;2024-02-26T02:58:30;2.30;;;2.20;;
10469;SDS011;5282;47.052;15.458;2024-02-26T03:00:57;2.63;;;2.53;;
10469;SDS011;5282;47.052;15.458;2024-02-26T03:03:25;2.37;;;2.20;;
10469;SDS011;5282;47.052;15.458;2024-02-26T03:05:54;2.50;;;2.40;;
10469;SDS011;5282;47.052;15.458;2024-02-26T03:08:22;2.43;;;2.27;;
10469;SDS011;5282;47.052;15.458;2024-02-26T03:10:49;2.83;;;2.73;;
10469;SDS011;5282;47.052;15.458;2024-02-26T03:13:17;4.20;;;2.63;;
10469;SDS011;5282;47.052;15.458;2024-02-26T03:15:45;3.13;;;2.77;;
10469;SDS011;5282;47.052;15.458;2024-02-26T03:18:15;2.83;;;2.63;;
10469;SDS011;5282;47.052;15.458;2024-02-26T03:20:42;2.47;;;2.37;;
10469;SDS011;5282;47.052;15.458;2024-02-26T03:23:10;2.83;;;2.73;;
10469;SDS011;5282;47.052;15.458;2024-02-26T03:25:41;3.00;;;2.43;;
10469;SDS011;5282;47.052;15.458;2024-02-26T03:28:11;2.60;;;2.50;;
10469;SDS011;5282;47.052;15.458;2024-02-26T03:30:40;2.60;;;2.50;;
10469;SDS011;5282;47.052;15.458;2024-02-26T03:33:07;2.90;;;2.70;;
10469;SDS011;5282;47.052;15.458;2024-02-26T03:35:34;2.53;;;2.40;;
10469;SDS011;5282;47.052;15.458;2024-02-26T03:38:01;2.90;;;2.67;;
10469;SDS011;5282;47.052;15.458;2024-02-26T03:40:30;3.00;;;2.43;;
10469;SDS011;5282;47.052;15.458;2024-02-26T03:42:57;2.63;;;2.43;;
10469;SDS011;5282;47.052;15.458;2024-02-26T03:45:24;2.87;;;2.67;;
10469;SDS011;5282;47.052;15.458;2024-02-26T03:47:52;2.90;;;2.70;;
10469;SDS011;5282;47.052;15.458;2024-02-26T03:50:19;2.60;;;2.40;;
10469;SDS011;5282;47.052;15.458;2024-02-26T03:52:47;2.97;;;2.77;;
10469;SDS011;5282;47.052;15.458;2024-02-26T03:55:13;2.47;;;2.30;;
10469;SDS011;5282;47.052;15.458;2024-02-26T03:57:41;2.60;;;2.40;;
10469;SDS011;5282;47.052;15.458;2024-02-26T04:00:09;2.70;;;2.60;;
10469;SDS011;5282;47.052;15.458;2024-02-26T04:02:37;2.20;;;2.10;;
10469;SDS011;5282;47.052;15.458;2024-02-26T04:05:08;2.47;;;2.27;;
10469;SDS011;5282;47.052;15.458;2024-02-26T04:07:36;2.17;;;2.07;;
10469;SDS011;5282;47.052;15.458;2024-02-26T04:10:03;2.43;;;2.33;;
10469;SDS011;5282;47.052;15.458;2024-02-26T04:12:37;2.60;;;2.50;;
10469;SDS011;5282;47.052;15.458;2024-02-26T04:15:06;3.23;;;3.00;;
10469;SDS011;5282;47.052;15.458;2024-02-26T04:17:34;3.23;;;3.03;;
10469;SDS011;5282;47.052;15.458;2024-02-26T04:20:01;2.50;;;2.40;;
10469;SDS011;5282;47.052;15.458;2024-02-26T04:22:30;2.40;;;2.20;;
10469;SDS011;5282;47.052;15.458;2024-02-26T04:24:57;3.03;;;2.40;;
10469;SDS011;5282;47.052;15.458;2024-02-26T04:27:24;2.70;;;2.30;;
10469;SDS011;5282;47.052;15.458;2024-02-26T04:29:51;2.40;;;2.30;;
10469;SDS011;5282;47.052;15.458;2024-02-26T04:32:19;3.03;;;2.07;;
10469;SDS011;5282;47.052;15.458;2024-02-26T04:34:46;3.13;;;2.33;;
10469;SDS011;5282;47.052;15.458;2024-02-26T04:37:13;2.30;;;2.20;;
10469;SDS011;5282;47.052;15.458;2024-02-26T04:39:41;2.33;;;2.23;;
10469;SDS011;5282;47.052;15.458;2024-02-26T04:42:08;2.20;;;2.00;;
10469;SDS011;5282;47.052;15.458;2024-02-26T04:44:35;2.80;;;2.60;;
10469;SDS011;5282;47.052;15.458;2024-02-26T04:47:02;2.60;;;2.20;;
10469;SDS011;5282;47.052;15.458;2024-02-26T04:49:29;2.70;;;2.50;;
10469;SDS011;5282;47.052;15.458;2024-02-26T04:51:56;3.17;;;2.60;;
10469;SDS011;5282;47.052;15.458;2024-02-26T04:54:23;2.57;;;2.20;;
10469;SDS011;5282;47.052;15.458;2024-02-26T04:56:51;2.73;;;2.53;;
10469;SDS011;5282;47.052;15.458;2024-02-26T04:59:18;2.50;;;2.20;;
10469;SDS011;5282;47.052;15.458;2024-02-26T05:01:45;2.57;;;2.40;;
10469;SDS011;5282;47.052;15.458;2024-02-26T05:04:12;2.17;;;1.97;;
10469;SDS011;5282;47.052;15.458;2024-02-26T05:06:39;2.37;;;2.27;;
10469;SDS011;5282;47.052;15.458;2024-02-26T05:09:05;4.10;;;2.40;;
10469;SDS011;5282;47.052;15.458;2024-02-26T05:11:32;2.63;;;2.37;;
10469;SDS011;5282;47.052;15.458;2024-02-26T05:14:02;2.60;;;2.50;;
10469;SDS011;5282;47.052;15.458;2024-02-26T05:16:29;2.70;;;2.27;;
10469;SDS011;5282;47.052;15.458;2024-02-26T05:18:56;2.63;;;2.20;;
10469;SDS011;5282;47.052;15.458;2024-02-26T05:21:23;2.50;;;2.30;;
10469;SDS011;5282;47.052;15.458;2024-02-26T05:23:50;2.27;;;2.17;;
10469;SDS011;5282;47.052;15.458;2024-02-26T05:26:20;2.47;;;2.37;;
10469;SDS011;5282;47.052;15.458;2024-02-26T05:28:48;2.70;;;2.50;;
10469;SDS011;5282;47.052;15.458;2024-02-26T05:31:17;2.60;;;2.50;;
10469;SDS011;5282;47.052;15.458;2024-02-26T05:33:44;2.60;;;2.40;;
10469;SDS011;5282;47.052;15.458;2024-02-26T05:36:17;3.00;;;2.80;;
10469;SDS011;5282;47.052;15.458;2024-02-26T05:38:44;2.40;;;2.30;;
10469;SDS011;5282;47.052;15.458;2024-02-26T05:41:12;2.57;;;2.47;;
10469;SDS011;5282;47.052;15.458;2024-02-26T05:43:41;2.37;;;2.20;;
10469;SDS011;5282;47.052;15.458;2024-02-26T05:46:08;3.27;;;2.70;;
10469;SDS011;5282;47.052;15.458;2024-02-26T05:48:36;2.90;;;2.70;;
10469;SDS011;5282;47.052;15.458;2024-02-26T05:51:04;2.90;;;2.70;;
10469;SDS011;5282;47.052;15.458;2024-02-26T05:53:33;2.77;;;2.57;;
10469;SDS011;5282;47.052;15.458;2024-02-26T05:56:00;3.00;;;2.90;;
10469;SDS011;5282;47.052;15.458;2024-02-26T05:58:27;3.10;;;2.80;;
10469;SDS011;5282;47.052;15.458;2024-02-26T06:00:54;3.80;;;3.60;;
10469;SDS011;5282;47.052;15.458;2024-02-26T06:03:21;2.97;;;2.87;;
10469;SDS011;5282;47.052;15.458;2024-02-26T06:05:49;3.40;;;3.10;;
10469;SDS011;5282;47.052;15.458;2024-02-26T06:08:16;4.83;;;4.20;;
10469;SDS011;5282;47.052;15.458;2024-02-26T06:10:43;5.67;;;3.50;;
10469;SDS011;5282;47.052;15.458;2024-02-26T06:13:10;3.53;;;3.33;;
10469;SDS011;5282;47.052;15.458;2024-02-26T06:15:37;3.47;;;3.27;;
10469;SDS011;5282;47.052;15.458;2024-02-26T06:18:04;5.60;;;2.90;;
10469;SDS011;5282;47.052;15.458;2024-02-26T06:20:31;6.37;;;2.93;;
10469;SDS011;5282;47.052;15.458;2024-02-26T06:23:00;2.87;;;2.77;;
10469;SDS011;5282;47.052;15.458;2024-02-26T06:25:27;3.40;;;3.20;;
10469;SDS011;5282;47.052;15.458;2024-02-26T06:27:54;3.00;;;2.80;;
10469;SDS011;5282;47.052;15.458;2024-02-26T06:30:21;3.80;;;3.10;;
10469;SDS011;5282;47.052;15.458;2024-02-26T06:32:48;3.27;;;3.07;;
10469;SDS011;5282;47.052;15.458;2024-02-26T06:35:15;4.10;;;3.43;;
10469;SDS011;5282;47.052;15.458;2024-02-26T06:37:42;3.60;;;3.07;;
10469;SDS011;5282;47.052;15.458;2024-02-26T06:40:10;5.57;;;3.00;;
10469;SDS011;5282;47.052;15.458;2024-02-26T06:42:37;3.10;;;2.80;;
10469;SDS011;5282;47.052;15.458;2024-02-26T06:45:05;3.10;;;2.83;;
10469;SDS011;5282;47.052;15.458;2024-02-26T06:47:32;3.73;;;3.20;;
10469;SDS011;5282;47.052;15.458;2024-02-26T06:49:59;2.77;;;2.67;;
10469;SDS011;5282;47.052;15.458;2024-02-26T06:52:26;3.10;;;2.57;;
10469;SDS011;5282;47.052;15.458;2024-02-26T06:54:53;2.73;;;2.53;;
10469;SDS011;5282;47.052;15.458;2024-02-26T06:57:21;3.87;;;2.97;;
10469;SDS011;5282;47.052;15.458;2024-02-26T06:59:49;4.37;;;2.70;;
10469;SDS011;5282;47.052;15.458;2024-02-26T07:02:16;4.43;;;3.40;;
10469;SDS011;5282;47.052;15.458;2024-02-26T07:04:44;2.70;;;2.60;;
10469;SDS011;5282;47.052;15.458;2024-02-26T07:07:11;3.33;;;3.00;;
10469;SDS011;5282;47.052;15.458;2024-02-26T07:09:41;3.60;;;3.23;;
10469;SDS011;5282;47.052;15.458;2024-02-26T07:12:08;3.20;;;3.00;;
10469;SDS011;5282;47.052;15.458;2024-02-26T07:14:36;3.00;;;2.80;;
10469;SDS011;5282;47.052;15.458;2024-02-26T07:17:04;3.60;;;3.10;;
10469;SDS011;5282;47.052;15.458;2024-02-26T07:19:31;3.20;;;3.00;;
10469;SDS011;5282;47.052;15.458;2024-02-26T07:21:58;3.07;;;2.90;;
10469;SDS011;5282;47.052;15.458;2024-02-26T07:24:26;5.33;;;3.27;;
10469;SDS011;5282;47.052;15.458;2024-02-26T07:26:53;3.00;;;2.90;;
10469;SDS011;5282;47.052;15.458;2024-02-26T07:29:20;3.37;;;3.17;;
10469;SDS011;5282;47.052;15.458;2024-02-26T07:31:49;4.00;;;3.60;;
10469;SDS011;5282;47.052;15.458;2024-02-26T07:34:16;3.50;;;3.30;;
10469;SDS011;5282;47.052;15.458;2024-02-26T07:36:43;6.43;;;3.77;;
10469;SDS011;5282;47.052;15.458;2024-02-26T07:39:10;3.90;;;3.30;;
10469;SDS011;5282;47.052;15.458;2024-02-26T07:41:37;4.30;;;3.90;;
10469;SDS011;5282;47.052;15.458;2024-02-26T07:44:04;4.90;;;3.63;;
10469;SDS011;5282;47.052;15.458;2024-02-26T07:46:32;3.50;;;3.20;;
10469;SDS011;5282;47.052;15.458;2024-02-26T07:49:00;3.17;;;3.07;;
10469;SDS011;5282;47.052;15.458;2024-02-26T07:51:27;3.50;;;3.20;;
10469;SDS011;5282;47.052;15.458;2024-02-26T07:53:54;3.77;;;3.50;;
10469;SDS011;5282;47.052;15.458;2024-02-26T07:56:21;3.93;;;3.50;;
10469;SDS011;5282;47.052;15.458;2024-02-26T07:58:48;3.93;;;3.43;;
10469;SDS011;5282;47.052;15.458;2024-02-26T08:01:14;3.57;;;3.27;;
10469;SDS011;5282;47.052;15.458;2024-02-26T08:03:42;2.57;;;2.37;;
10469;SDS011;5282;47.052;15.458;2024-02-26T08:06:10;3.07;;;2.80;;
10469;SDS011;5282;47.052;15.458;2024-02-26T08:08:37;3.00;;;2.70;;
10469;SDS011;5282;47.052;15.458;2024-02-26T08:11:03;2.43;;;2.23;;
10469;SDS011;5282;47.052;15.458;2024-02-26T08:13:31;3.00;;;2.50;;
10469;SDS011;5282;47.052;15.458;2024-02-26T08:15:58;2.80;;;2.60;;
10469;SDS011;5282;47.052;15.458;2024-02-26T08:18:25;3.10;;;2.90;;
10469;SDS011;5282;47.052;15.458;2024-02-26T08:20:52;2.80;;;2.60;;
10469;SDS011;5282;47.052;15.458;2024-02-26T08:23:21;3.27;;;2.77;;
10469;SDS011;5282;47.052;15.458;2024-02-26T08:25:47;2.87;;;2.67;;
10469;SDS011;5282;47.052;15.458;2024-02-26T08:28:14;3.20;;;3.00;;
10469;SDS011;5282;47.052;15.458;2024-02-26T08:30:43;2.97;;;2.83;;
10469;SDS011;5282;47.052;15.458;2024-02-26T08:33:10;6.00;;;3.03;;
10469;SDS011;5282;47.052;15.458;2024-02-26T08:35:38;3.00;;;2.50;;
10469;SDS011;5282;47.052;15.458;2024-02-26T08:38:05;3.23;;;2.80;;
10469;SDS011;5282;47.052;15.458;2024-02-26T08:40:33;3.03;;;2.87;;
10469;SDS011;5282;47.052;15.458;2024-02-26T08:43:01;2.83;;;2.63;;
10469;SDS011;5282;47.052;15.458;2024-02-26T08:45:28;3.07;;;2.87;;
10469;SDS011;5282;47.052;15.458;2024-02-26T08:47:54;2.90;;;2.27;;
10469;SDS011;5282;47.052;15.458;2024-02-26T08:50:21;2.60;;;2.50;;
10469;SDS011;5282;47.052;15.458;2024-02-26T08:52:48;2.47;;;2.37;;
10469;SDS011;5282;47.052;15.458;2024-02-26T08:55:16;3.97;;;2.60;;
10469;SDS011;5282;47.052;15.458;2024-02-26T08:57:45;2.20;;;2.10;;
10469;SDS011;5282;47.052;15.458;2024-02-26T09:00:12;2.90;;;2.33;;
10469;SDS011;5282;47.052;15.458;2024-02-26T09:02:40;2.10;;;2.00;;
10469;SDS011;5282;47.052;15.458;2024-02-26T09:05:09;2.57;;;2.47;;
10469;SDS011;5282;47.052;15.458;2024-02-26T09:07:36;3.30;;;3.00;;
10469;SDS011;5282;47.052;15.458;2024-02-26T09:10:03;3.10;;;2.87;;
10469;SDS011;5282;47.052;15.458;2024-02-26T09:12:31;3.00;;;2.80;;
10469;SDS011;5282;47.052;15.458;2024-02-26T09:14:59;2.93;;;2.43;;
10469;SDS011;5282;47.052;15.458;2024-02-26T09:17:26;5.57;;;2.47;;
10469;SDS011;5282;47.052;15.458;2024-02-26T09:19:53;3.27;;;3.07;;
10469;SDS011;5282;47.052;15.458;2024-02-26T09:22:20;2.70;;;2.50;;
10469;SDS011;5282;47.052;15.458;2024-02-26T09:24:48;2.70;;;2.57;;
10469;SDS011;5282;47.052;15.458;2024-02-26T09:27:16;4.33;;;3.30;;
10469;SDS011;5282;47.052;15.458;2024-02-26T09:29:43;2.63;;;2.43;;
10469;SDS011;5282;47.052;15.458;2024-02-26T09:32:11;3.40;;;2.60;;
10469;SDS011;5282;47.052;15.458;2024-02-26T09:34:39;3.20;;;3.00;;
10469;SDS011;5282;47.052;15.458;2024-02-26T09:37:06;2.50;;;2.40;;
10469;SDS011;5282;47.052;15.458;2024-02-26T09:39:33;2.70;;;2.50;;
10469;SDS011;5282;47.052;15.458;2024-02-26T09:42:00;2.53;;;2.33;;
10469;SDS011;5282;47.052;15.458;2024-02-26T09:44:31;3.20;;;2.50;;
10469;SDS011;5282;47.052;15.458;2024-02-26T09:47:03;3.53;;;2.30;;
10469;SDS011;5282;47.052;15.458;2024-02-26T09:49:35;2.60;;;2.40;;
10469;SDS011;5282;47.052;15.458;2024-02-26T09:52:03;5.13;;;2.50;;
10469;SDS011;5282;47.052;15.458;2024-02-26T09:54:31;4.67;;;3.27;;
10469;SDS011;5282;47.052;15.458;2024-02-26T09:56:59;3.10;;;3.00;;
10469;SDS011;5282;47.052;15.458;2024-02-26T09:59:29;2.63;;;2.53;;
10469;SDS011;5282;47.052;15.458;2024-02-26T10:02:01;3.57;;;2.80;;
10469;SDS011;5282;47.052;15.458;2024-02-26T10:04:30;1.73;;;1.63;;
10469;SDS011;5282;47.052;15.458;2024-02-26T10:06:59;1.50;;;1.50;;
10469;SDS011;5282;47.052;15.458;2024-02-26T10:09:29;2.13;;;1.87;;
10469;SDS011;5282;47.052;15.458;2024-02-26T10:11:57;1.90;;;1.80;;
10469;SDS011;5282;47.052;15.458;2024-02-26T10:14:24;2.00;;;1.90;;
10469;SDS011;5282;47.052;15.458;2024-02-26T10:16:51;1.83;;;1.70;;
10469;SDS011;5282;47.052;15.458;2024-02-26T10:19:24;1.80;;;1.63;;
10469;SDS011;5282;47.052;15.458;2024-02-26T10:21:54;1.47;;;1.47;;
10469;SDS011;5282;47.052;15.458;2024-02-26T10:24:24;5.10;;;1.50;;
10469;SDS011;5282;47.052;15.458;2024-02-26T10:26:54;1.57;;;1.57;;
10469;SDS011;5282;47.052;15.458;2024-02-26T10:29:22;1.40;;;1.20;;
10469;SDS011;5282;47.052;15.458;2024-02-26T10:31:50;1.70;;;1.60;;
10469;SDS011;5282;47.052;15.458;2024-02-26T10:34:18;1.40;;;1.20;;
10469;SDS011;5282;47.052;15.458;2024-02-26T10:36:45;1.53;;;1.43;;
10469;SDS011;5282;47.052;15.458;2024-02-26T10:39:12;1.20;;;1.20;;
10469;SDS011;5282;47.052;15.458;2024-02-26T10:41:42;1.20;;;1.20;;
10469;SDS011;5282;47.052;15.458;2024-02-26T10:44:10;1.33;;;1.10;;
10469;SDS011;5282;47.052;15.458;2024-02-26T10:46:38;1.10;;;1.10;;
10469;SDS011;5282;47.052;15.458;2024-02-26T10:49:08;1.43;;;1.20;;
10469;SDS011;5282;47.052;15.458;2024-02-26T10:51:40;1.20;;;1.20;;
10469;SDS011;5282;47.052;15.458;2024-02-26T10:54:11;2.37;;;1.10;;
10469;SDS011;5282;47.052;15.458;2024-02-26T10:56:42;1.00;;;1.00;;
10469;SDS011;5282;47.052;15.458;2024-02-26T10:59:12;0.93;;;0.93;;
10469;SDS011;5282;47.052;15.458;2024-02-26T11:01:41;1.00;;;1.00;;
10469;SDS011;5282;47.052;15.458;2024-02-26T11:04:12;1.03;;;1.03;;
10469;SDS011;5282;47.052;15.458;2024-02-26T11:06:39;2.10;;;1.30;;
10469;SDS011;5282;47.052;15.458;2024-02-26T11:09:06;1.17;;;1.07;;
10469;SDS011;5282;47.052;15.458;2024-02-26T11:11:38;1.10;;;1.10;;
10469;SDS011;5282;47.052;15.458;2024-02-26T11:14:08;1.40;;;1.30;;
10469;SDS011;5282;47.052;15.458;2024-02-26T11:16:36;1.90;;;1.10;;
10469;SDS011;5282;47.052;15.458;2024-02-26T11:19:06;1.83;;;1.03;;
10469;SDS011;5282;47.052;15.458;2024-02-26T11:21:35;1.03;;;1.03;;
10469;SDS011;5282;47.052;15.458;2024-02-26T11:24:07;1.07;;;1.03;;
10469;SDS011;5282;47.052;15.458;2024-02-26T11:26:36;1.10;;;1.10;;
10469;SDS011;5282;47.052;15.458;2024-02-26T11:29:11;1.30;;;1.30;;
10469;SDS011;5282;47.052;15.458;2024-02-26T11:31:40;1.73;;;1.63;;
10469;SDS011;5282;47.052;15.458;2024-02-26T11:34:08;1.10;;;1.10;;
10469;SDS011;5282;47.052;15.458;2024-02-26T11:36:36;1.63;;;1.53;;
10469;SDS011;5282;47.052;15.458;2024-02-26T11:39:04;1.50;;;1.40;;
10469;SDS011;5282;47.052;15.458;2024-02-26T11:41:32;1.70;;;1.60;;
10469;SDS011;5282;47.052;15.458;2024-02-26T11:44:01;1.83;;;1.73;;
10469;SDS011;5282;47.052;15.458;2024-02-26T11:46:32;1.50;;;1.50;;
10469;SDS011;5282;47.052;15.458;2024-02-26T11:49:00;1.63;;;1.63;;
10469;SDS011;5282;47.052;15.458;2024-02-26T11:51:33;1.60;;;1.50;;
10469;SDS011;5282;47.052;15.458;2024-02-26T11:54:01;2.00;;;1.90;;
10469;SDS011;5282;47.052;15.458;2024-02-26T11:56:27;1.73;;;1.63;;
10469;SDS011;5282;47.052;15.458;2024-02-26T11:58:58;1.60;;;1.50;;
10469;SDS011;5282;47.052;15.458;2024-02-26T12:01:41;1.40;;;1.40;;
10469;SDS011;5282;47.052;15.458;2024-02-26T12:04:13;2.07;;;1.60;;
10469;SDS011;5282;47.052;15.458;2024-02-26T12:06:43;1.43;;;1.20;;
10469;SDS011;5282;47.052;15.458;2024-02-26T12:09:12;1.77;;;1.77;;
10469;SDS011;5282;47.052;15.458;2024-02-26T12:11:40;1.80;;;1.70;;
10469;SDS011;5282;47.052;15.458;2024-02-26T12:14:09;1.60;;;1.50;;
10469;SDS011;5282;47.052;15.458;2024-02-26T12:16:36;1.43;;;1.40;;
10469;SDS011;5282;47.052;15.458;2024-02-26T12:19:06;1.67;;;1.57;;
10469;SDS011;5282;47.052;15.458;2024-02-26T12:21:35;1.83;;;1.73;;
10469;SDS011;5282;47.052;15.458;2024-02-26T12:24:11;1.67;;;1.60;;
10469;SDS011;5282;47.052;15.458;2024-02-26T12:26:39;1.70;;;1.60;;
10469;SDS011;5282;47.052;15.458;2024-02-26T12:29:07;2.30;;;1.60;;
10469;SDS011;5282;47.052;15.458;2024-02-26T12:31:34;1.60;;;1.50;;
10469;SDS011;5282;47.052;15.458;2024-02-26T12:34:04;1.40;;;1.40;;
10469;SDS011;5282;47.052;15.458;2024-02-26T12:36:34;1.63;;;1.53;;
10469;SDS011;5282;47.052;15.458;2024-02-26T12:39:02;1.70;;;1.60;;
10469;SDS011;5282;47.052;15.458;2024-02-26T12:41:31;1.70;;;1.50;;
10469;SDS011;5282;47.052;15.458;2024-02-26T12:43:58;2.00;;;1.70;;
10469;SDS011;5282;47.052;15.458;2024-02-26T12:46:25;1.70;;;1.60;;
10469;SDS011;5282;47.052;15.458;2024-02-26T12:48:54;1.70;;;1.60;;
10469;SDS011;5282;47.052;15.458;2024-02-26T12:51:25;1.80;;;1.70;;
10469;SDS011;5282;47.052;15.458;2024-02-26T12:53:54;1.90;;;1.80;;
10469;SDS011;5282;47.052;15.458;2024-02-26T12:56:22;1.60;;;1.30;;
10469;SDS011;5282;47.052;15.458;2024-02-26T12:58:50;2.23;;;1.70;;
10469;SDS011;5282;47.052;15.458;2024-02-26T13:01:19;2.20;;;1.60;;
10469;SDS011;5282;47.052;15.458;2024-02-26T13:03:49;1.93;;;1.50;;
10469;SDS011;5282;47.052;15.458;2024-02-26T13:06:17;2.20;;;1.47;;
10469;SDS011;5282;47.052;15.458;2024-02-26T13:08:46;1.47;;;1.40;;
10469;SDS011;5282;47.052;15.458;2024-02-26T13:11:13;1.40;;;1.30;;
10469;SDS011;5282;47.052;15.458;2024-02-26T13:13:40;1.30;;;1.23;;
10469;SDS011;5282;47.052;15.458;2024-02-26T13:16:08;1.33;;;1.33;;
10469;SDS011;5282;47.052;15.458;2024-02-26T13:18:36;1.17;;;1.17;;
10469;SDS011;5282;47.052;15.458;2024-02-26T13:21:10;1.97;;;1.00;;
10469;SDS011;5282;47.052;15.458;2024-02-26T13:23:38;1.40;;;1.30;;
10469;SDS011;5282;47.052;15.458;2024-02-26T13:26:07;1.27;;;1.13;;
10469;SDS011;5282;47.052;15.458;2024-02-26T13:28:35;1.90;;;1.37;;
10469;SDS011;5282;47.052;15.458;2024-02-26T13:31:02;1.10;;;1.10;;
10469;SDS011;5282;47.052;15.458;2024-02-26T13:33:31;1.43;;;1.33;;
10469;SDS011;5282;47.052;15.458;2024-02-26T13:35:58;2.40;;;1.90;;
10469;SDS011;5282;47.052;15.458;2024-02-26T13:38:26;1.57;;;1.40;;
10469;SDS011;5282;47.052;15.458;2024-02-26T13:40:54;1.47;;;1.40;;
10469;SDS011;5282;47.052;15.458;2024-02-26T13:43:22;3.27;;;1.60;;
10469;SDS011;5282;47.052;15.458;2024-02-26T13:45:49;1.20;;;1.17;;
10469;SDS011;5282;47.052;15.458;2024-02-26T13:48:16;1.20;;;1.20;;
10469;SDS011;5282;47.052;15.458;2024-02-26T13:50:43;2.23;;;1.20;;
10469;SDS011;5282;47.052;15.458;2024-02-26T13:53:10;1.10;;;0.97;;
10469;SDS011;5282;47.052;15.458;2024-02-26T13:55:37;1.20;;;1.20;;
10469;SDS011;5282;47.052;15.458;2024-02-26T13:58:05;2.40;;;1.03;;
10469;SDS011;5282;47.052;15.458;2024-02-26T14:00:33;1.60;;;1.50;;
10469;SDS011;5282;47.052;15.458;2024-02-26T14:03:01;1.40;;;1.13;;
10469;SDS011;5282;47.052;15.458;2024-02-26T14:05:28;1.30;;;1.20;;
10469;SDS011;5282;47.052;15.458;2024-02-26T14:07:55;1.00;;;1.00;;
10469;SDS011;5282;47.052;15.458;2024-02-26T14:10:22;1.83;;;1.30;;
10469;SDS011;5282;47.052;15.458;2024-02-26T14:12:49;2.60;;;0.93;;
10469;SDS011;5282;47.052;15.458;2024-02-26T14:15:16;1.00;;;1.00;;
10469;SDS011;5282;47.052;15.458;2024-02-26T14:17:44;1.07;;;1.00;;
10469;SDS011;5282;47.052;15.458;2024-02-26T14:20:18;0.80;;;0.80;;
10469;SDS011;5282;47.052;15.458;2024-02-26T14:22:45;2.00;;;0.80;;
10469;SDS011;5282;47.052;15.458;2024-02-26T14:25:12;1.33;;;1.23;;
10469;SDS011;5282;47.052;15.458;2024-02-26T14:27:39;1.97;;;1.67;;
10469;SDS011;5282;47.052;15.458;2024-02-26T14:30:07;1.27;;;1.23;;
10469;SDS011;5282;47.052;15.458;2024-02-26T14:32:34;1.40;;;1.30;;
10469;SDS011;5282;47.052;15.458;2024-02-26T14:35:05;0.87;;;0.87;;
10469;SDS011;5282;47.052;15.458;2024-02-26T14:37:34;0.60;;;0.60;;
10469;SDS011;5282;47.052;15.458;2024-02-26T14:40:01;0.90;;;0.90;;
10469;SDS011;5282;47.052;15.458;2024-02-26T14:42:28;1.17;;;1.03;;
10469;SDS011;5282;47.052;15.458;2024-02-26T14:44:55;0.77;;;0.77;;
10469;SDS011;5282;47.052;15.458;2024-02-26T14:47:22;0.70;;;0.70;;
10469;SDS011;5282;47.052;15.458;2024-02-26T14:49:49;0.80;;;0.80;;
10469;SDS011;5282;47.052;15.458;2024-02-26T14:52:18;0.90;;;0.90;;